createdAt,value
2022-12-18T00:01:32.422Z,-9.40
2022-12-18T00:03:59.763Z,-9.40
2022-12-18T00:06:28.491Z,-9.30
2022-12-18T00:08:57.333Z,-9.20
2022-12-18T00:11:26.706Z,-9.20
2022-12-18T00:13:56.013Z,-9.10
2022-12-18T00:16:24.467Z,-9.10
2022-12-18T00:18:53.900Z,-9.10
2022-12-18T00:21:21.639Z,-9.00
2022-12-18T00:23:49.760Z,-9.00
2022-12-18T00:26:22.598Z,-9.00
2022-12-18T00:28:52.806Z,-9.00
2022-12-18T00:31:24.798Z,-9.10
2022-12-18T00:33:56.563Z,-9.20
2022-12-18T00:36:26.064Z,-9.20
2022-12-18T00:38:55.001Z,-9.20
2022-12-18T00:41:40.925Z,-9.10
2022-12-18T00:44:10.131Z,-9.10
2022-12-18T00:46:37.100Z,-9.00
2022-12-18T00:49:04.327Z,-9.00
2022-12-18T00:51:31.669Z,-9.00
2022-12-18T00:53:58.597Z,-9.00
2022-12-18T00:56:25.732Z,-8.90
2022-12-18T00:58:53.334Z,-9.00
2022-12-18T01:01:20.775Z,-9.00
2022-12-18T01:03:47.656Z,-9.10
2022-12-18T01:06:16.305Z,-9.20
2022-12-18T01:08:43.753Z,-9.20
2022-12-18T01:11:16.259Z,-9.20
2022-12-18T01:13:43.217Z,-9.20
2022-12-18T01:16:13.531Z,-9.20
2022-12-18T01:18:40.891Z,-9.10
2022-12-18T01:21:13.482Z,-9.10
2022-12-18T01:23:40.896Z,-9.10
2022-12-18T01:26:09.788Z,-9.10
2022-12-18T01:28:37.216Z,-9.20
2022-12-18T01:31:27.187Z,-9.20
2022-12-18T01:33:55.858Z,-9.20
2022-12-18T01:36:26.321Z,-9.20
2022-12-18T01:38:53.999Z,-9.20
2022-12-18T01:41:24.000Z,-9.20
2022-12-18T01:43:58.621Z,-9.20
2022-12-18T01:46:26.963Z,-9.20
2022-12-18T01:49:00.401Z,-9.20
2022-12-18T01:51:28.504Z,-9.10
2022-12-18T01:53:55.525Z,-9.00
2022-12-18T01:56:22.923Z,-8.90
2022-12-18T01:59:06.808Z,-8.90
2022-12-18T02:01:33.983Z,-9.00
2022-12-18T02:04:24.864Z,-9.00
2022-12-18T02:07:10.447Z,-9.00
2022-12-18T02:09:47.700Z,-9.10
2022-12-18T02:12:27.512Z,-9.10
2022-12-18T02:15:01.000Z,-9.30
2022-12-18T02:17:32.260Z,-9.30
2022-12-18T02:20:15.099Z,-9.20
2022-12-18T02:22:45.453Z,-9.20
2022-12-18T02:25:42.857Z,-9.20
2022-12-18T02:28:13.835Z,-9.10
2022-12-18T02:30:43.216Z,-9.00
2022-12-18T02:33:12.333Z,-8.80
2022-12-18T02:35:41.824Z,-8.50
2022-12-18T02:38:10.279Z,-8.30
2022-12-18T02:40:39.224Z,-8.10
2022-12-18T02:43:12.044Z,-8.00
2022-12-18T02:45:55.609Z,-7.80
2022-12-18T02:48:30.590Z,-7.80
2022-12-18T02:51:21.117Z,-7.70
2022-12-18T02:54:16.641Z,-7.70
2022-12-18T02:56:51.438Z,-7.60
2022-12-18T02:59:26.508Z,-7.60
2022-12-18T03:02:02.060Z,-7.50
2022-12-18T03:04:54.536Z,-7.60
2022-12-18T03:07:34.119Z,-7.70
2022-12-18T03:10:02.105Z,-7.80
2022-12-18T03:12:33.443Z,-8.00
2022-12-18T03:15:04.193Z,-7.90
2022-12-18T03:17:34.098Z,-7.90
2022-12-18T03:20:15.430Z,-8.00
2022-12-18T03:22:45.093Z,-7.90
2022-12-18T03:25:15.772Z,-7.90
2022-12-18T03:27:50.329Z,-7.90
2022-12-18T03:30:18.470Z,-7.70
2022-12-18T03:33:01.941Z,-7.70
2022-12-18T03:35:34.377Z,-7.90
2022-12-18T03:38:01.264Z,-8.00
2022-12-18T03:40:41.480Z,-8.10
2022-12-18T03:43:20.069Z,-8.30
2022-12-18T03:45:56.660Z,-8.30
2022-12-18T03:48:30.458Z,-8.30
2022-12-18T03:51:07.103Z,-8.30
2022-12-18T03:54:02.311Z,-8.50
2022-12-18T03:56:57.466Z,-8.50
2022-12-18T03:59:26.983Z,-8.40
2022-12-18T04:01:57.092Z,-8.30
2022-12-18T04:04:26.405Z,-8.10
2022-12-18T04:06:54.145Z,-7.90
2022-12-18T04:09:21.962Z,-7.90
2022-12-18T04:11:49.529Z,-7.90
2022-12-18T04:14:18.290Z,-7.80
2022-12-18T04:16:46.505Z,-7.80
2022-12-18T04:19:16.621Z,-7.70
2022-12-18T04:21:45.124Z,-7.80
2022-12-18T04:24:14.109Z,-7.70
2022-12-18T04:26:47.513Z,-7.60
2022-12-18T04:29:19.435Z,-7.60
2022-12-18T04:31:46.361Z,-7.60
2022-12-18T04:34:13.094Z,-7.50
2022-12-18T04:36:47.797Z,-7.50
2022-12-18T04:39:15.589Z,-7.50
2022-12-18T04:41:42.328Z,-7.50
2022-12-18T04:44:10.211Z,-7.40
2022-12-18T04:46:37.268Z,-7.40
2022-12-18T04:49:03.984Z,-7.40
2022-12-18T04:51:30.657Z,-7.30
2022-12-18T04:53:57.345Z,-7.30
2022-12-18T04:56:24.066Z,-7.30
2022-12-18T04:58:50.877Z,-7.40
2022-12-18T05:01:19.011Z,-7.30
2022-12-18T05:03:46.191Z,-7.30
2022-12-18T05:06:13.100Z,-7.20
2022-12-18T05:08:39.987Z,-7.20
2022-12-18T05:11:10.536Z,-7.10
2022-12-18T05:13:39.035Z,-7.10
2022-12-18T05:16:06.838Z,-7.10
2022-12-18T05:18:33.599Z,-7.10
2022-12-18T05:21:00.341Z,-7.00
2022-12-18T05:23:27.718Z,-7.00
2022-12-18T05:25:59.467Z,-6.90
2022-12-18T05:28:29.202Z,-6.90
2022-12-18T05:30:59.511Z,-6.90
2022-12-18T05:33:29.585Z,-6.90
2022-12-18T05:35:59.008Z,-6.80
2022-12-18T05:38:26.953Z,-6.80
2022-12-18T05:40:54.000Z,-6.80
2022-12-18T05:43:25.285Z,-6.80
2022-12-18T05:45:52.465Z,-6.80
2022-12-18T05:48:19.447Z,-6.80
2022-12-18T05:50:47.891Z,-6.80
2022-12-18T05:53:17.725Z,-6.80
2022-12-18T05:55:44.817Z,-6.90
2022-12-18T05:58:13.504Z,-6.90
2022-12-18T06:00:44.254Z,-6.90
2022-12-18T06:03:12.892Z,-6.90
2022-12-18T06:05:42.394Z,-6.90
2022-12-18T06:08:09.855Z,-6.90
2022-12-18T06:10:36.654Z,-6.90
2022-12-18T06:13:03.557Z,-7.00
2022-12-18T06:15:30.225Z,-6.90
2022-12-18T06:17:57.052Z,-6.90
2022-12-18T06:20:24.285Z,-7.00
2022-12-18T06:22:53.409Z,-7.00
2022-12-18T06:25:20.121Z,-7.00
2022-12-18T06:27:48.953Z,-7.00
2022-12-18T06:30:16.130Z,-7.00
2022-12-18T06:32:43.100Z,-7.00
2022-12-18T06:35:10.165Z,-7.00
2022-12-18T06:37:36.892Z,-7.00
2022-12-18T06:40:03.955Z,-7.10
2022-12-18T06:42:30.716Z,-7.10
2022-12-18T06:44:57.467Z,-7.10
2022-12-18T06:47:24.435Z,-7.10
2022-12-18T06:49:51.079Z,-7.10
2022-12-18T06:52:17.840Z,-7.10
2022-12-18T06:54:44.507Z,-7.10
2022-12-18T06:57:11.203Z,-7.20
2022-12-18T06:59:37.876Z,-7.20
2022-12-18T07:02:05.566Z,-7.20
2022-12-18T07:04:32.856Z,-7.20
2022-12-18T07:06:59.573Z,-7.20
2022-12-18T07:09:26.278Z,-7.20
2022-12-18T07:11:53.577Z,-7.20
2022-12-18T07:14:20.321Z,-7.30
2022-12-18T07:16:47.540Z,-7.30
2022-12-18T07:19:14.344Z,-7.30
2022-12-18T07:21:41.213Z,-7.30
2022-12-18T07:24:08.333Z,-7.30
2022-12-18T07:26:35.033Z,-7.30
2022-12-18T07:29:01.716Z,-7.30
2022-12-18T07:31:28.866Z,-7.30
2022-12-18T07:33:56.094Z,-7.30
2022-12-18T07:36:24.044Z,-7.30
2022-12-18T07:38:52.448Z,-7.20
2022-12-18T07:41:19.739Z,-7.30
2022-12-18T07:43:46.945Z,-7.20
2022-12-18T07:46:15.113Z,-7.20
2022-12-18T07:48:44.791Z,-7.30
2022-12-18T07:51:15.230Z,-7.30
2022-12-18T07:53:42.585Z,-7.30
2022-12-18T07:56:29.219Z,-7.30
2022-12-18T07:58:57.908Z,-7.20
2022-12-18T08:01:25.147Z,-7.20
2022-12-18T08:03:52.657Z,-7.20
2022-12-18T08:06:22.743Z,-7.10
2022-12-18T08:08:55.365Z,-7.10
2022-12-18T08:11:23.552Z,-7.10
2022-12-18T08:13:50.322Z,-7.00
2022-12-18T08:16:17.252Z,-7.00
2022-12-18T08:18:44.094Z,-7.00
2022-12-18T08:21:13.922Z,-6.90
2022-12-18T08:23:42.959Z,-7.00
2022-12-18T08:26:11.272Z,-6.90
2022-12-18T08:28:38.400Z,-6.90
2022-12-18T08:31:05.585Z,-6.90
2022-12-18T08:33:32.452Z,-6.80
2022-12-18T08:36:02.935Z,-6.80
2022-12-18T08:38:29.653Z,-6.80
2022-12-18T08:41:11.531Z,-6.80
2022-12-18T08:43:57.069Z,-6.70
2022-12-18T08:46:26.072Z,-6.70
2022-12-18T08:48:54.365Z,-6.70
2022-12-18T08:51:21.532Z,-6.70
2022-12-18T08:53:48.609Z,-6.60
2022-12-18T08:56:16.067Z,-6.50
2022-12-18T08:58:43.104Z,-6.60
2022-12-18T09:01:12.184Z,-6.50
2022-12-18T09:03:39.854Z,-6.50
2022-12-18T09:06:07.344Z,-6.40
2022-12-18T09:08:34.686Z,-6.40
2022-12-18T09:11:01.332Z,-6.30
2022-12-18T09:13:28.401Z,-6.20
2022-12-18T09:15:56.581Z,-6.20
2022-12-18T09:18:24.582Z,-6.10
2022-12-18T09:20:53.864Z,-6.10
2022-12-18T09:23:21.562Z,-6.00
2022-12-18T09:25:48.610Z,-6.00
2022-12-18T09:28:18.189Z,-6.00
2022-12-18T09:30:48.008Z,-5.90
2022-12-18T09:33:14.937Z,-5.80
2022-12-18T09:35:43.345Z,-5.80
2022-12-18T09:38:13.853Z,-5.70
2022-12-18T09:40:58.225Z,-5.70
2022-12-18T09:43:36.629Z,-5.60
2022-12-18T09:46:08.698Z,-5.50
2022-12-18T09:48:43.580Z,-5.40
2022-12-18T09:51:18.435Z,-5.30
2022-12-18T09:53:51.751Z,-5.20
2022-12-18T09:56:23.693Z,-5.20
2022-12-18T09:58:58.530Z,-5.20
2022-12-18T10:01:33.426Z,-5.10
2022-12-18T10:04:06.734Z,-5.00
2022-12-18T10:06:37.669Z,-5.00
2022-12-18T10:09:29.356Z,-4.90
2022-12-18T10:12:33.497Z,-4.90
2022-12-18T10:15:31.349Z,-4.80
2022-12-18T10:18:01.120Z,-4.70
2022-12-18T10:20:41.321Z,-4.70
2022-12-18T10:23:13.660Z,-4.60
2022-12-18T10:25:52.374Z,-4.50
2022-12-18T10:28:20.386Z,-4.50
2022-12-18T10:30:47.677Z,-4.30
2022-12-18T10:33:20.912Z,-4.20
2022-12-18T10:35:50.901Z,-4.10
2022-12-18T10:38:17.556Z,-4.00
2022-12-18T10:40:55.291Z,-3.90
2022-12-18T10:43:28.880Z,-3.80
2022-12-18T10:46:22.128Z,-3.80
2022-12-18T10:48:53.623Z,-3.70
2022-12-18T10:51:31.515Z,-3.60
2022-12-18T10:54:03.079Z,-3.60
2022-12-18T10:56:35.278Z,-3.50
2022-12-18T10:59:06.009Z,-3.50
2022-12-18T11:01:51.618Z,-3.40
2022-12-18T11:04:25.506Z,-3.40
2022-12-18T11:07:03.921Z,-3.30
2022-12-18T11:09:34.912Z,-3.40
2022-12-18T11:12:19.794Z,-3.40
2022-12-18T11:14:54.115Z,-3.30
2022-12-18T11:17:27.144Z,-3.20
2022-12-18T11:20:02.363Z,-3.20
2022-12-18T11:22:34.702Z,-3.10
2022-12-18T11:25:32.412Z,-3.10
2022-12-18T11:28:00.407Z,-3.10
2022-12-18T11:30:35.787Z,-3.10
2022-12-18T11:33:12.364Z,-3.00
2022-12-18T11:36:00.394Z,-2.90
2022-12-18T11:38:31.743Z,-3.00
2022-12-18T11:41:24.412Z,-3.00
2022-12-18T11:44:01.863Z,-2.80
2022-12-18T11:46:39.281Z,-2.80
2022-12-18T11:49:18.065Z,-2.80
2022-12-18T11:51:54.024Z,-2.70
2022-12-18T11:54:20.704Z,-2.70
2022-12-18T11:56:54.867Z,-2.80
2022-12-18T11:59:39.723Z,-2.70
2022-12-18T12:02:18.489Z,-2.70
2022-12-18T12:04:49.109Z,-2.60
2022-12-18T12:07:24.532Z,-2.50
2022-12-18T12:10:10.114Z,-2.50
2022-12-18T12:13:04.323Z,-2.40
2022-12-18T12:16:01.925Z,-2.30
2022-12-18T12:18:47.175Z,-2.30
2022-12-18T12:21:46.128Z,-2.30
2022-12-18T12:24:54.700Z,-2.20
2022-12-18T12:27:21.423Z,-2.20
2022-12-18T12:30:42.596Z,-2.20
2022-12-18T12:33:25.949Z,-2.30
2022-12-18T12:35:56.463Z,-2.20
2022-12-18T12:38:29.108Z,-2.20
2022-12-18T12:41:36.943Z,-2.20
2022-12-18T12:44:09.128Z,-2.10
2022-12-18T12:46:40.137Z,-2.10
2022-12-18T12:49:29.739Z,-2.00
2022-12-18T12:52:14.931Z,-2.00
2022-12-18T12:54:42.898Z,-1.80
2022-12-18T12:57:27.885Z,-1.90
2022-12-18T13:00:04.612Z,-1.80
2022-12-18T13:03:02.135Z,-1.70
2022-12-18T13:05:35.069Z,-1.70
2022-12-18T13:08:08.345Z,-1.70
2022-12-18T13:10:41.060Z,-1.60
2022-12-18T13:13:13.457Z,-1.70
2022-12-18T13:16:03.862Z,-1.70
2022-12-18T13:18:30.868Z,-1.70
2022-12-18T13:21:03.380Z,-1.70
2022-12-18T13:23:37.535Z,-1.70
2022-12-18T13:26:07.077Z,-1.70
2022-12-18T13:28:33.748Z,-1.70
2022-12-18T13:31:02.266Z,-1.70
2022-12-18T13:33:51.089Z,-1.70
2022-12-18T13:36:33.906Z,-1.60
2022-12-18T13:39:19.700Z,-1.50
2022-12-18T13:41:50.952Z,-1.60
2022-12-18T13:44:39.992Z,-1.60
2022-12-18T13:47:33.210Z,-1.60
2022-12-18T13:50:01.405Z,-1.70
2022-12-18T13:52:38.557Z,-1.80
2022-12-18T13:55:08.608Z,-1.80
2022-12-18T13:57:39.761Z,-1.80
2022-12-18T14:00:30.116Z,-1.90
2022-12-18T14:02:58.761Z,-1.90
2022-12-18T14:05:28.061Z,-1.90
2022-12-18T14:07:56.600Z,-2.00
2022-12-18T14:13:16.143Z,-2.00
2022-12-18T14:15:47.433Z,-2.00
2022-12-18T14:18:23.200Z,-2.00
2022-12-18T14:20:57.750Z,-1.80
2022-12-18T14:23:38.111Z,-1.80
2022-12-18T14:26:30.032Z,-1.90
2022-12-18T14:28:58.242Z,-1.90
2022-12-18T14:31:27.670Z,-2.00
2022-12-18T14:33:55.245Z,-2.00
2022-12-18T14:36:25.251Z,-2.00
2022-12-18T14:38:57.089Z,-2.00
2022-12-18T14:41:25.033Z,-2.00
2022-12-18T14:43:54.067Z,-2.00
2022-12-18T14:46:33.813Z,-2.00
2022-12-18T14:49:34.004Z,-2.20
2022-12-18T14:52:17.031Z,-2.20
2022-12-18T14:54:48.302Z,-2.30
2022-12-18T14:57:36.871Z,-2.30
2022-12-18T15:00:15.449Z,-2.30
2022-12-18T15:02:43.754Z,-2.30
2022-12-18T15:05:13.545Z,-2.50
2022-12-18T15:07:44.800Z,-2.50
2022-12-18T15:10:27.857Z,-2.50
2022-12-18T15:12:57.463Z,-2.50
2022-12-18T15:15:40.677Z,-2.60
2022-12-18T15:18:12.965Z,-2.50
2022-12-18T15:20:51.355Z,-2.60
2022-12-18T15:23:33.528Z,-2.60
2022-12-18T15:26:05.735Z,-2.60
2022-12-18T15:28:47.258Z,-2.60
2022-12-18T15:31:14.041Z,-2.60
2022-12-18T15:34:00.655Z,-2.70
2022-12-18T15:36:30.889Z,-2.70
2022-12-18T15:39:05.056Z,-2.70
2022-12-18T15:41:35.269Z,-2.80
2022-12-18T15:44:04.270Z,-2.80
2022-12-18T15:46:31.779Z,-2.80
2022-12-18T15:49:02.359Z,-2.80
2022-12-18T15:51:41.317Z,-2.80
2022-12-18T15:54:14.889Z,-2.80
2022-12-18T15:57:00.506Z,-2.80
2022-12-18T15:59:27.464Z,-2.80
2022-12-18T16:01:54.487Z,-2.80
2022-12-18T16:04:22.621Z,-2.70
2022-12-18T16:07:13.953Z,-2.70
2022-12-18T16:09:37.665Z,-2.70
2022-12-18T16:12:04.779Z,-2.70
2022-12-18T16:14:32.828Z,-2.70
2022-12-18T16:17:07.019Z,-2.70
2022-12-18T16:19:33.697Z,-2.70
2022-12-18T16:22:00.517Z,-2.60
2022-12-18T16:24:33.966Z,-2.60
2022-12-18T16:27:01.178Z,-2.60
2022-12-18T16:29:29.427Z,-2.60
2022-12-18T16:32:00.630Z,-2.60
2022-12-18T16:34:29.406Z,-2.60
2022-12-18T16:37:08.025Z,-2.70
2022-12-18T16:39:36.069Z,-2.60
2022-12-18T16:42:21.065Z,-2.60
2022-12-18T16:44:49.618Z,-2.60
2022-12-18T16:47:16.936Z,-2.60
2022-12-18T16:49:47.429Z,-2.60
2022-12-18T16:52:14.899Z,-2.50
2022-12-18T16:54:41.620Z,-2.50
2022-12-18T16:57:16.578Z,-2.50
2022-12-18T16:59:43.295Z,-2.50
2022-12-18T17:02:23.638Z,-2.50
2022-12-18T17:04:53.430Z,-2.50
2022-12-18T17:07:20.395Z,-2.50
2022-12-18T17:09:47.115Z,-2.40
2022-12-18T17:12:13.825Z,-2.40
2022-12-18T17:14:40.554Z,-2.40
2022-12-18T17:17:23.794Z,-2.40
2022-12-18T17:19:52.036Z,-2.40
2022-12-18T17:22:19.527Z,-2.40
2022-12-18T17:24:47.419Z,-2.50
2022-12-18T17:27:14.644Z,-2.50
2022-12-18T17:29:47.322Z,-2.50
2022-12-18T17:32:15.503Z,-2.60
2022-12-18T17:34:42.176Z,-2.50
2022-12-18T17:37:09.262Z,-2.50
2022-12-18T17:39:36.096Z,-2.60
2022-12-18T17:42:02.851Z,-2.60
2022-12-18T17:44:29.587Z,-2.50
2022-12-18T17:46:56.388Z,-2.60
2022-12-18T17:49:23.259Z,-2.60
2022-12-18T17:51:49.944Z,-2.60
2022-12-18T17:54:16.743Z,-2.60
2022-12-18T17:56:43.457Z,-2.60
2022-12-18T17:59:10.974Z,-2.60
2022-12-18T18:01:44.012Z,-2.60
2022-12-18T18:04:11.909Z,-2.50
2022-12-18T18:06:39.542Z,-2.50
2022-12-18T18:09:10.002Z,-2.50
2022-12-18T18:12:03.038Z,-2.60
2022-12-18T18:14:30.112Z,-2.50
2022-12-18T18:16:56.905Z,-2.50
2022-12-18T18:19:27.476Z,-2.50
2022-12-18T18:21:54.653Z,-2.50
2022-12-18T18:24:26.110Z,-2.40
2022-12-18T18:26:53.288Z,-2.50
2022-12-18T18:29:23.879Z,-2.50
2022-12-18T18:31:52.599Z,-2.50
2022-12-18T18:34:28.054Z,-2.50
2022-12-18T18:36:54.968Z,-2.60
2022-12-18T18:39:22.786Z,-2.60
2022-12-18T18:41:49.741Z,-2.60
2022-12-18T18:44:18.524Z,-2.60
2022-12-18T18:46:45.492Z,-2.60
2022-12-18T18:49:13.653Z,-2.60
2022-12-18T18:51:41.867Z,-2.60
2022-12-18T18:54:09.308Z,-2.60
2022-12-18T18:59:24.428Z,-2.50
2022-12-18T19:01:59.863Z,-2.50
2022-12-18T19:04:32.684Z,-2.50
2022-12-18T19:06:59.610Z,-2.50
2022-12-18T19:09:28.141Z,-2.50
2022-12-18T19:12:14.749Z,-2.50
2022-12-18T19:14:41.933Z,-2.50
2022-12-18T19:17:10.324Z,-2.50
2022-12-18T19:19:37.139Z,-2.50
2022-12-18T19:22:04.102Z,-2.50
2022-12-18T19:24:32.099Z,-2.40
2022-12-18T19:26:58.793Z,-2.50
2022-12-18T19:29:25.560Z,-2.40
2022-12-18T19:31:52.568Z,-2.50
2022-12-18T19:34:19.452Z,-2.50
2022-12-18T19:36:46.454Z,-2.40
2022-12-18T19:39:16.176Z,-2.40
2022-12-18T19:41:43.501Z,-2.40
2022-12-18T19:44:16.609Z,-2.40
2022-12-18T19:46:45.958Z,-2.40
2022-12-18T19:49:16.757Z,-2.50
2022-12-18T19:51:44.877Z,-2.40
2022-12-18T19:54:16.403Z,-2.50
2022-12-18T19:56:44.452Z,-2.40
2022-12-18T19:59:11.343Z,-2.40
2022-12-18T20:01:38.205Z,-2.40
2022-12-18T20:04:05.526Z,-2.40
2022-12-18T20:06:51.089Z,-2.40
2022-12-18T20:09:19.546Z,-2.30
2022-12-18T20:11:47.711Z,-2.30
2022-12-18T20:14:22.673Z,-2.30
2022-12-18T20:16:51.072Z,-2.30
2022-12-18T20:19:18.593Z,-2.40
2022-12-18T20:21:46.036Z,-2.30
2022-12-18T20:24:13.083Z,-2.30
2022-12-18T20:26:40.504Z,-2.30
2022-12-18T20:29:07.203Z,-2.30
2022-12-18T20:31:34.164Z,-2.30
2022-12-18T20:34:02.652Z,-2.20
2022-12-18T20:36:34.094Z,-2.30
2022-12-18T20:39:02.654Z,-2.30
2022-12-18T20:41:37.627Z,-2.20
2022-12-18T20:44:22.837Z,-2.30
2022-12-18T20:46:52.672Z,-2.30
2022-12-18T20:49:19.685Z,-2.30
2022-12-18T20:51:49.488Z,-2.30
2022-12-18T20:54:16.233Z,-2.30
2022-12-18T20:56:43.019Z,-2.30
2022-12-18T20:59:09.809Z,-2.30
2022-12-18T21:01:38.810Z,-2.40
2022-12-18T21:04:08.067Z,-2.30
2022-12-18T21:06:35.007Z,-2.30
2022-12-18T21:09:02.032Z,-2.20
2022-12-18T21:11:52.046Z,-2.20
2022-12-18T21:14:24.413Z,-2.20
2022-12-18T21:16:51.801Z,-2.20
2022-12-18T21:19:21.067Z,-2.10
2022-12-18T21:21:47.779Z,-2.20
2022-12-18T21:24:14.911Z,-2.30
2022-12-18T21:26:45.908Z,-2.20
2022-12-18T21:29:18.807Z,-2.20
2022-12-18T21:31:45.701Z,-2.20
2022-12-18T21:34:25.581Z,-2.20
2022-12-18T21:36:52.740Z,-2.20
2022-12-18T21:39:20.205Z,-2.10
2022-12-18T21:42:08.358Z,-2.10
2022-12-18T21:44:41.503Z,-2.10
2022-12-18T21:47:22.091Z,-2.10
2022-12-18T21:49:53.283Z,-2.20
2022-12-18T21:52:27.231Z,-2.20
2022-12-18T21:55:08.938Z,-2.10
2022-12-18T21:57:37.858Z,-2.10
2022-12-18T22:00:06.179Z,-2.10
2022-12-18T22:02:39.189Z,-2.10
2022-12-18T22:05:06.393Z,-2.10
2022-12-18T22:07:33.728Z,-2.10
2022-12-18T22:10:01.940Z,-2.20
2022-12-18T22:12:43.450Z,-2.10
2022-12-18T22:15:21.423Z,-2.20
2022-12-18T22:17:50.053Z,-2.10
2022-12-18T22:20:17.675Z,-2.00
2022-12-18T22:22:47.942Z,-2.00
2022-12-18T22:25:14.697Z,-2.10
2022-12-18T22:27:41.359Z,-2.10
2022-12-18T22:30:08.637Z,-2.10
2022-12-18T22:32:36.166Z,-2.00
2022-12-18T22:35:10.452Z,-2.00
2022-12-18T22:37:39.791Z,-2.10
2022-12-18T22:40:07.484Z,-2.10
2022-12-18T22:42:35.395Z,-2.10
2022-12-18T22:45:02.102Z,-2.10
2022-12-18T22:47:30.527Z,-2.00
2022-12-18T22:49:57.969Z,-2.00
2022-12-18T22:52:25.265Z,-2.00
2022-12-18T22:54:53.260Z,-2.00
2022-12-18T22:57:21.635Z,-2.00
2022-12-18T22:59:49.219Z,-2.00
2022-12-18T23:02:17.622Z,-2.00
2022-12-18T23:04:44.930Z,-1.90
2022-12-18T23:07:11.992Z,-1.90
2022-12-18T23:09:39.673Z,-1.80
2022-12-18T23:12:06.853Z,-1.90
2022-12-18T23:14:33.676Z,-1.90
2022-12-18T23:17:00.365Z,-2.00
2022-12-18T23:19:27.327Z,-1.90
2022-12-18T23:21:54.872Z,-2.00
2022-12-18T23:24:25.340Z,-2.10
2022-12-18T23:26:52.048Z,-2.10
2022-12-18T23:29:18.787Z,-2.20
2022-12-18T23:31:45.588Z,-2.20
2022-12-18T23:34:14.758Z,-2.20
2022-12-18T23:36:46.398Z,-2.30
2022-12-18T23:39:15.406Z,-2.30
2022-12-18T23:41:59.656Z,-2.20
2022-12-18T23:44:26.487Z,-2.30
2022-12-18T23:46:53.607Z,-2.30
2022-12-18T23:49:20.402Z,-2.20
2022-12-18T23:51:47.153Z,-2.20
2022-12-18T23:54:14.007Z,-2.20
2022-12-18T23:56:42.042Z,-2.10
2022-12-18T23:59:08.841Z,-2.20
